Jrs Capella — 5BER4 — position and weather

sailwx.info

Track history (hours):
 
Tides and Currents Weather Stations Pressure Air Temp Water Temp Dewpoint Dewpoint Depression Visibility Wind Speed Wind Dir Waves Ship Positions

Jrs Capella

Last reported at 2017-Nov-17 23:00 UTC. Time now 2017-Nov-17 23:08 UTC.
Position N 51°18' E 004°16'.

Length 130 m; draft 7.5 m.

Type: Cargo ship. MMSI: 212339000.

Date/timePositionNaut miles runAvg speedWind from/ knotsBaromVisibWave heightAir tempDewpointWater temp
2017-Nov-17 23:00N 51°18' E 004°16'0 0.0
2017-Nov-17 22:30N 51°18' E 004°16'0 0.0
2017-Nov-17 22:00N 51°18' E 004°16'0 0.0
2017-Nov-17 21:30N 51°18' E 004°16'0 0.0
2017-Nov-17 21:00N 51°18' E 004°16'2 4.1
2017-Nov-17 20:30N 51°20' E 004°16'510.1
2017-Nov-17 20:00N 51°24' E 004°12'611.8
2017-Nov-17 19:30N 51°23' E 004°02'3 6.8
2017-Nov-17 19:01N 51°24' E 003°58'612.0
2017-Nov-17 18:31N 51°21' E 003°50'611.7
2017-Nov-17 18:01N 51°24' E 003°42'510.0
2017-Nov-17 17:31N 51°26' E 003°35'4 7.5
2017-Nov-17 17:01N 51°28' E 003°30'611.9
2017-Nov-17 16:30N 51°33' E 003°25'611.9
2017-Nov-17 15:59N 51°39' E 003°20'712.6
2017-Nov-17 15:27N 51°45' E 003°16'19 9.6
2017-Nov-17 13:29N 52°03' E 003°26'510.5
2017-Nov-17 13:00N 52°03' E 003°35'613.1
2017-Nov-17 12:31N 52°03' E 003°45'612.3
2017-Nov-17 12:00N 52°03' E 003°55'611.6
2017-Nov-17 11:31N 51°59' E 004°03'713.2
2017-Nov-17 11:00N 51°56' E 004°12'611.6
2017-Nov-17 10:31N 51°54' E 004°21'3 5.7
2017-Nov-17 10:00N 51°53' E 004°25'0 0.0
2017-Nov-17 09:30N 51°53' E 004°25'0 0.0
2017-Nov-17 09:00N 51°53' E 004°25'0 0.0
2017-Nov-17 08:30N 51°53' E 004°25'0 0.0
2017-Nov-17 08:00N 51°53' E 004°25'0 0.0
2017-Nov-17 07:30N 51°53' E 004°25'0 0.0
2017-Nov-17 07:00N 51°53' E 004°25'0 0.0
2017-Nov-17 06:30N 51°53' E 004°25'0 0.0
2017-Nov-17 06:00N 51°53' E 004°25'0 0.0
2017-Nov-17 05:30N 51°53' E 004°25'0 0.0
2017-Nov-17 05:00N 51°53' E 004°25'0 0.0
2017-Nov-17 04:30N 51°53' E 004°25'0 0.0
2017-Nov-17 04:00N 51°53' E 004°25'0 0.0
2017-Nov-17 03:30N 51°53' E 004°25'0 0.0
2017-Nov-17 03:00N 51°53' E 004°25'0 0.0
2017-Nov-17 02:30N 51°53' E 004°25'0 0.0
2017-Nov-17 02:00N 51°53' E 004°25'0 0.0
2017-Nov-17 01:30N 51°53' E 004°25'0 0.0
2017-Nov-17 01:00N 51°53' E 004°25'0 0.0
2017-Nov-17 00:30N 51°53' E 004°25'0 0.0
2017-Nov-17 00:00N 51°53' E 004°25'0 0.0
2017-Nov-16 23:31N 51°53' E 004°25'0 0.0
2017-Nov-16 23:00N 51°53' E 004°25'0 0.0
2017-Nov-16 22:30N 51°53' E 004°25'0 0.0
2017-Nov-16 22:00N 51°53' E 004°25'0 0.0
2017-Nov-16 21:30N 51°53' E 004°25'0 0.0
2017-Nov-16 21:00N 51°53' E 004°25'0 0.0
2017-Nov-16 20:30N 51°53' E 004°25'0 0.0
2017-Nov-16 20:00N 51°53' E 004°25'0 0.0
2017-Nov-16 19:30N 51°53' E 004°25'0 0.0
2017-Nov-16 19:00N 51°53' E 004°25'0 0.0
2017-Nov-16 18:30N 51°53' E 004°25'0 0.0
2017-Nov-16 18:00N 51°53' E 004°25'0 0.0
2017-Nov-16 17:30N 51°53' E 004°25'0 0.0
2017-Nov-16 17:00N 51°53' E 004°25'0 0.0
2017-Nov-16 16:30N 51°53' E 004°25'0 0.0
2017-Nov-16 16:00N 51°53' E 004°25'0 0.0
2017-Nov-16 15:30N 51°53' E 004°25'0 0.0
2017-Nov-16 15:00N 51°53' E 004°25'0 0.0
2017-Nov-16 14:30N 51°53' E 004°25'0 0.0
2017-Nov-16 14:00N 51°53' E 004°25'0 0.0
2017-Nov-16 13:30N 51°53' E 004°25'1 1.3
2017-Nov-16 13:00N 51°53' E 004°24'3 5.7
2017-Nov-16 12:30N 51°54' E 004°20'611.3
2017-Nov-16 12:00N 51°56' E 004°12'713.2
2017-Nov-16 11:31N 51°59' E 004°02'815.4
2017-Nov-16 11:00N 51°60' E 003°50'5 9.3
2017-Nov-16 10:30N 51°59' E 003°43'510.7
2017-Nov-16 10:00N 51°57' E 003°34'710.8
2017-Nov-16 09:21N 51°55' E 003°23'410.5
2017-Nov-16 08:55N 51°54' E 003°16'610.3
2017-Nov-16 08:21N 51°52' E 003°07'2010.4
2017-Nov-16 06:29N 51°46' E 002°37'710.5
2017-Nov-16 05:48N 51°41' E 002°30'310.5
2017-Nov-16 05:29N 51°38' E 002°26'510.9
2017-Nov-16 05:00N 51°34' E 002°21'511.1
2017-Nov-16 04:30N 51°30' E 002°15'611.8
2017-Nov-16 04:00N 51°26' E 002°09'612.5
2017-Nov-16 03:30N 51°19' E 002°08'612.8
2017-Nov-16 03:00N 51°13' E 002°05'713.8
2017-Nov-16 02:31N 51°10' E 001°55'714.1
2017-Nov-16 02:00N 51°06' E 001°46'714.5
2017-Nov-16 01:30N 51°01' E 001°37'7513.9
2017-Nov-15 20:07N 50°18' E 000°01'315.5
2017-Nov-15 19:55N 50°17' W 000°04'715.8
2017-Nov-15 19:30N 50°16' W 000°14'2217.6
2017-Nov-15 18:13N 50°09' W 000°48'418.6
2017-Nov-15 18:00N 50°08' W 000°54'918.7
2017-Nov-15 17:30N 50°05' W 001°08'918.7
2017-Nov-15 17:01N 50°03' W 001°22'918.4
2017-Nov-15 16:30N 49°60' W 001°35'918.1
2017-Nov-15 16:00N 49°58' W 001°49'917.4
2017-Nov-15 15:30N 49°56' W 002°02'916.6
2017-Nov-15 14:58N 49°54' W 002°16'816.1
2017-Nov-15 14:30N 49°53' W 002°27'1015.7
2017-Nov-15 13:52N 49°50' W 002°42'615.5
2017-Nov-15 13:28N 49°48' W 002°51'815.2
2017-Nov-15 12:58N 49°44' W 003°01'815.2
2017-Nov-15 12:28N 49°40' W 003°11'2215.3
2017-Nov-15 11:01N 49°31' W 003°42'1015.2
2017-Nov-15 10:24N 49°26' W 003°55'3514.9
2017-Nov-15 08:03N 49°09' W 004°42'114.6
2017-Nov-15 07:58N 49°09' W 004°43'814.7
2017-Nov-15 07:27N 49°05' W 004°53'714.7
2017-Nov-15 07:00N 49°01' W 005°02'714.8
2017-Nov-15 06:30N 48°58' W 005°11'1115.0
2017-Nov-15 05:47N 48°52' W 005°26'1014.1
2017-Nov-15 05:03N 48°46' W 005°39'115.6
2017-Nov-15 05:00N 48°46' W 005°39'915.4
2017-Nov-15 04:27N 48°38' W 005°45'815.7
2017-Nov-15 03:58N 48°31' W 005°50'1815.9
2017-Nov-15 02:49N 48°15' W 006°03'918.8
2017-Nov-15 02:21N 48°07' W 006°09'613.6
2017-Nov-15 01:53N 48°02' W 006°14'716.5
2017-Nov-15 01:28N 47°56' W 006°19'816.6
2017-Nov-15 01:00N 47°49' W 006°24'816.6
2017-Nov-15 00:30N 47°41' W 006°30'816.7
2017-Nov-14 23:59N 47°34' W 006°35'816.6
2017-Nov-14 23:30N 47°27' W 006°41'815.9
2017-Nov-14 23:00N 47°20' W 006°47'915.6
2017-Nov-14 22:24N 47°11' W 006°53'1016.0
2017-Nov-14 21:47N 47°02' W 006°59'60213.5
2017-Nov-13 01:08N 37°10' W 009°24'414.5
2017-Nov-13 00:52N 37°06' W 009°23'1114.4
2017-Nov-13 00:07N 36°56' W 009°19'314.1
2017-Nov-12 23:53N 36°53' W 009°18'1913.7
2017-Nov-12 22:29N 36°41' W 008°59'4014.1
2017-Nov-12 19:38N 36°04' W 008°40'149 4.7
2017-Nov-11 12:03N 35°58' W 005°36'1012.3
2017-Nov-11 11:16N 36°00' W 005°24'413.1
2017-Nov-11 11:00N 36°01' W 005°20'22914.6
2017-Nov-10 19:17N 37°34' W 000°59'223 9.0
2017-Nov-09 18:24N 35°60' W 005°12'716.9
2017-Nov-09 18:00N 35°59' W 005°20'816.2
2017-Nov-09 17:30N 35°57' W 005°30'21414.5
2017-Nov-09 02:47N 33°42' W 008°53'414.8
2017-Nov-09 02:30N 33°39' W 008°56'714.7
2017-Nov-09 02:00N 33°34' W 009°02'714.6
2017-Nov-09 01:30N 33°28' W 009°08'8713.8
2017-Nov-08 19:14N 32°21' W 010°12'313.3
2017-Nov-08 19:00N 32°19' W 010°15'813.3
2017-Nov-08 18:24N 32°13' W 010°21'1913.7
2017-Nov-08 16:59N 31°59' W 010°37'714.0
2017-Nov-08 16:30N 31°54' W 010°43'713.9
2017-Nov-08 16:00N 31°50' W 010°49'2913.0
2017-Nov-08 13:44N 31°29' W 011°14'2211.8
2017-Nov-08 11:52N 31°15' W 011°34'410.9
2017-Nov-08 11:30N 31°13' W 011°37'611.2
2017-Nov-08 10:56N 31°08' W 011°43'511.4
2017-Nov-08 10:30N 31°05' W 011°47'611.6
2017-Nov-08 10:00N 31°01' W 011°52'612.0
2017-Nov-08 09:28N 30°57' W 011°58'1711.7
2017-Nov-08 08:02N 30°46' W 012°13'111.4
2017-Nov-08 07:57N 30°46' W 012°14'511.5
2017-Nov-08 07:29N 30°42' W 012°18'611.8
2017-Nov-08 06:59N 30°38' W 012°24'2911.7
2017-Nov-08 04:30N 30°23' W 012°52'611.9
2017-Nov-08 03:59N 30°20' W 012°58'2311.3
2017-Nov-08 01:56N 30°09' W 013°22'  
Track history (hours):
 
Tides and Currents Weather Stations Pressure Air Temp Water Temp Dewpoint Dewpoint Depression Visibility Wind Speed Wind Dir Waves Ship Positions

Jrs Capella

Last reported at 2017-Nov-17 23:00 UTC. Time now 2017-Nov-17 23:08 UTC.
Position N 51°18' E 004°16'.

Length 130 m; draft 7.5 m.

Type: Cargo ship. MMSI: 212339000.

Date/timePositionNaut miles runAvg speedWind from/ knotsBaromVisibWave heightAir tempDewpointWater temp
2017-Nov-17 23:00N 51°18' E 004°16'0 0.0
2017-Nov-17 22:30N 51°18' E 004°16'0 0.0
2017-Nov-17 22:00N 51°18' E 004°16'0 0.0
2017-Nov-17 21:30N 51°18' E 004°16'0 0.0
2017-Nov-17 21:00N 51°18' E 004°16'2 4.1
2017-Nov-17 20:30N 51°20' E 004°16'510.1
2017-Nov-17 20:00N 51°24' E 004°12'611.8
2017-Nov-17 19:30N 51°23' E 004°02'3 6.8
2017-Nov-17 19:01N 51°24' E 003°58'612.0
2017-Nov-17 18:31N 51°21' E 003°50'611.7
2017-Nov-17 18:01N 51°24' E 003°42'510.0
2017-Nov-17 17:31N 51°26' E 003°35'4 7.5
2017-Nov-17 17:01N 51°28' E 003°30'611.9
2017-Nov-17 16:30N 51°33' E 003°25'611.9
2017-Nov-17 15:59N 51°39' E 003°20'712.6
2017-Nov-17 15:27N 51°45' E 003°16'19 9.6
2017-Nov-17 13:29N 52°03' E 003°26'510.5
2017-Nov-17 13:00N 52°03' E 003°35'613.1
2017-Nov-17 12:31N 52°03' E 003°45'612.3
2017-Nov-17 12:00N 52°03' E 003°55'611.6
2017-Nov-17 11:31N 51°59' E 004°03'713.2
2017-Nov-17 11:00N 51°56' E 004°12'611.6
2017-Nov-17 10:31N 51°54' E 004°21'3 5.7
2017-Nov-17 10:00N 51°53' E 004°25'0 0.0
2017-Nov-17 09:30N 51°53' E 004°25'0 0.0
2017-Nov-17 09:00N 51°53' E 004°25'0 0.0
2017-Nov-17 08:30N 51°53' E 004°25'0 0.0
2017-Nov-17 08:00N 51°53' E 004°25'0 0.0
2017-Nov-17 07:30N 51°53' E 004°25'0 0.0
2017-Nov-17 07:00N 51°53' E 004°25'0 0.0
2017-Nov-17 06:30N 51°53' E 004°25'0 0.0
2017-Nov-17 06:00N 51°53' E 004°25'0 0.0
2017-Nov-17 05:30N 51°53' E 004°25'0 0.0
2017-Nov-17 05:00N 51°53' E 004°25'0 0.0
2017-Nov-17 04:30N 51°53' E 004°25'0 0.0
2017-Nov-17 04:00N 51°53' E 004°25'0 0.0
2017-Nov-17 03:30N 51°53' E 004°25'0 0.0
2017-Nov-17 03:00N 51°53' E 004°25'0 0.0
2017-Nov-17 02:30N 51°53' E 004°25'0 0.0
2017-Nov-17 02:00N 51°53' E 004°25'0 0.0
2017-Nov-17 01:30N 51°53' E 004°25'0 0.0
2017-Nov-17 01:00N 51°53' E 004°25'0 0.0
2017-Nov-17 00:30N 51°53' E 004°25'0 0.0
2017-Nov-17 00:00N 51°53' E 004°25'0 0.0
2017-Nov-16 23:31N 51°53' E 004°25'0 0.0
2017-Nov-16 23:00N 51°53' E 004°25'0 0.0
2017-Nov-16 22:30N 51°53' E 004°25'0 0.0
2017-Nov-16 22:00N 51°53' E 004°25'0 0.0
2017-Nov-16 21:30N 51°53' E 004°25'0 0.0
2017-Nov-16 21:00N 51°53' E 004°25'0 0.0
2017-Nov-16 20:30N 51°53' E 004°25'0 0.0
2017-Nov-16 20:00N 51°53' E 004°25'0 0.0
2017-Nov-16 19:30N 51°53' E 004°25'0 0.0
2017-Nov-16 19:00N 51°53' E 004°25'0 0.0
2017-Nov-16 18:30N 51°53' E 004°25'0 0.0
2017-Nov-16 18:00N 51°53' E 004°25'0 0.0
2017-Nov-16 17:30N 51°53' E 004°25'0 0.0
2017-Nov-16 17:00N 51°53' E 004°25'0 0.0
2017-Nov-16 16:30N 51°53' E 004°25'0 0.0
2017-Nov-16 16:00N 51°53' E 004°25'0 0.0
2017-Nov-16 15:30N 51°53' E 004°25'0 0.0
2017-Nov-16 15:00N 51°53' E 004°25'0 0.0
2017-Nov-16 14:30N 51°53' E 004°25'0 0.0
2017-Nov-16 14:00N 51°53' E 004°25'0 0.0
2017-Nov-16 13:30N 51°53' E 004°25'1 1.3
2017-Nov-16 13:00N 51°53' E 004°24'3 5.7
2017-Nov-16 12:30N 51°54' E 004°20'611.3
2017-Nov-16 12:00N 51°56' E 004°12'713.2
2017-Nov-16 11:31N 51°59' E 004°02'815.4
2017-Nov-16 11:00N 51°60' E 003°50'5 9.3
2017-Nov-16 10:30N 51°59' E 003°43'510.7
2017-Nov-16 10:00N 51°57' E 003°34'710.8
2017-Nov-16 09:21N 51°55' E 003°23'410.5
2017-Nov-16 08:55N 51°54' E 003°16'610.3
2017-Nov-16 08:21N 51°52' E 003°07'2010.4
2017-Nov-16 06:29N 51°46' E 002°37'710.5
2017-Nov-16 05:48N 51°41' E 002°30'310.5
2017-Nov-16 05:29N 51°38' E 002°26'510.9
2017-Nov-16 05:00N 51°34' E 002°21'511.1
2017-Nov-16 04:30N 51°30' E 002°15'611.8
2017-Nov-16 04:00N 51°26' E 002°09'612.5
2017-Nov-16 03:30N 51°19' E 002°08'612.8
2017-Nov-16 03:00N 51°13' E 002°05'713.8
2017-Nov-16 02:31N 51°10' E 001°55'714.1
2017-Nov-16 02:00N 51°06' E 001°46'714.5
2017-Nov-16 01:30N 51°01' E 001°37'7513.9
2017-Nov-15 20:07N 50°18' E 000°01'315.5
2017-Nov-15 19:55N 50°17' W 000°04'715.8
2017-Nov-15 19:30N 50°16' W 000°14'2217.6
2017-Nov-15 18:13N 50°09' W 000°48'418.6
2017-Nov-15 18:00N 50°08' W 000°54'918.7
2017-Nov-15 17:30N 50°05' W 001°08'918.7
2017-Nov-15 17:01N 50°03' W 001°22'918.4
2017-Nov-15 16:30N 49°60' W 001°35'918.1
2017-Nov-15 16:00N 49°58' W 001°49'917.4
2017-Nov-15 15:30N 49°56' W 002°02'916.6
2017-Nov-15 14:58N 49°54' W 002°16'816.1
2017-Nov-15 14:30N 49°53' W 002°27'1015.7
2017-Nov-15 13:52N 49°50' W 002°42'615.5
2017-Nov-15 13:28N 49°48' W 002°51'815.2
2017-Nov-15 12:58N 49°44' W 003°01'815.2
2017-Nov-15 12:28N 49°40' W 003°11'2215.3
2017-Nov-15 11:01N 49°31' W 003°42'1015.2
2017-Nov-15 10:24N 49°26' W 003°55'3514.9
2017-Nov-15 08:03N 49°09' W 004°42'114.6
2017-Nov-15 07:58N 49°09' W 004°43'814.7
2017-Nov-15 07:27N 49°05' W 004°53'714.7
2017-Nov-15 07:00N 49°01' W 005°02'714.8
2017-Nov-15 06:30N 48°58' W 005°11'1115.0
2017-Nov-15 05:47N 48°52' W 005°26'1014.1
2017-Nov-15 05:03N 48°46' W 005°39'115.6
2017-Nov-15 05:00N 48°46' W 005°39'915.4
2017-Nov-15 04:27N 48°38' W 005°45'815.7
2017-Nov-15 03:58N 48°31' W 005°50'1815.9
2017-Nov-15 02:49N 48°15' W 006°03'918.8
2017-Nov-15 02:21N 48°07' W 006°09'613.6
2017-Nov-15 01:53N 48°02' W 006°14'716.5
2017-Nov-15 01:28N 47°56' W 006°19'816.6
2017-Nov-15 01:00N 47°49' W 006°24'816.6
2017-Nov-15 00:30N 47°41' W 006°30'816.7
2017-Nov-14 23:59N 47°34' W 006°35'816.6
2017-Nov-14 23:30N 47°27' W 006°41'815.9
2017-Nov-14 23:00N 47°20' W 006°47'915.6
2017-Nov-14 22:24N 47°11' W 006°53'1016.0
2017-Nov-14 21:47N 47°02' W 006°59'60213.5
2017-Nov-13 01:08N 37°10' W 009°24'414.5
2017-Nov-13 00:52N 37°06' W 009°23'1114.4
2017-Nov-13 00:07N 36°56' W 009°19'314.1
2017-Nov-12 23:53N 36°53' W 009°18'1913.7
2017-Nov-12 22:29N 36°41' W 008°59'4014.1
2017-Nov-12 19:38N 36°04' W 008°40'149 4.7
2017-Nov-11 12:03N 35°58' W 005°36'1012.3
2017-Nov-11 11:16N 36°00' W 005°24'413.1
2017-Nov-11 11:00N 36°01' W 005°20'22914.6
2017-Nov-10 19:17N 37°34' W 000°59'223 9.0
2017-Nov-09 18:24N 35°60' W 005°12'716.9
2017-Nov-09 18:00N 35°59' W 005°20'816.2
2017-Nov-09 17:30N 35°57' W 005°30'21414.5
2017-Nov-09 02:47N 33°42' W 008°53'414.8
2017-Nov-09 02:30N 33°39' W 008°56'714.7
2017-Nov-09 02:00N 33°34' W 009°02'714.6
2017-Nov-09 01:30N 33°28' W 009°08'8713.8
2017-Nov-08 19:14N 32°21' W 010°12'313.3
2017-Nov-08 19:00N 32°19' W 010°15'813.3
2017-Nov-08 18:24N 32°13' W 010°21'1913.7
2017-Nov-08 16:59N 31°59' W 010°37'714.0
2017-Nov-08 16:30N 31°54' W 010°43'713.9
2017-Nov-08 16:00N 31°50' W 010°49'2913.0
2017-Nov-08 13:44N 31°29' W 011°14'2211.8
2017-Nov-08 11:52N 31°15' W 011°34'410.9
2017-Nov-08 11:30N 31°13' W 011°37'611.2
2017-Nov-08 10:56N 31°08' W 011°43'511.4
2017-Nov-08 10:30N 31°05' W 011°47'611.6
2017-Nov-08 10:00N 31°01' W 011°52'612.0
2017-Nov-08 09:28N 30°57' W 011°58'1711.7
2017-Nov-08 08:02N 30°46' W 012°13'111.4
2017-Nov-08 07:57N 30°46' W 012°14'511.5
2017-Nov-08 07:29N 30°42' W 012°18'611.8
2017-Nov-08 06:59N 30°38' W 012°24'2911.7
2017-Nov-08 04:30N 30°23' W 012°52'611.9
2017-Nov-08 03:59N 30°20' W 012°58'2311.3
2017-Nov-08 01:56N 30°09' W 013°22'  

Dump ship's entire track history